Warning: Javascript must be enabled to use all the features on this page!


Page Loading - Please Wait...

Click to hideNews Bulletins

Peak Streamflow for the Nation

USGS 01632900 SMITH CREEK NEAR NEW MARKET, VA

Shenandoah County, Virginia
Hydrologic Unit Code 02070006
Latitude  38°41'36", Longitude  78°38'35" NAD27
Drainage area 93.6  square miles
Gage datum 880.84 feet above NAVD88
Output formats
Table
Graph
Tab-separated file
peakfq (watstore) format
Reselect output format
Water
Year
Date Gage
Height
(feet)
Stream-
flow
(cfs)
1960 1959-10-01 10.703  
1961 1961-04-13 7.063 1,210
1962 1962-03-21 8.003 1,680
1963 1963-03-19 9.103 2,700
1964 1964-01-21 7.55 1,300
1965 1965-02-08 7.78 1,380
1966 1966-02-28 5.82 722
1967 1967-03-07 9.93 2,770
1968 1968-03-13 7.22 1,100
1969 1969-08-10 6.66 935
1970 1970-04-23 6.03 745
1971 1971-02-13 9.96 2,860
1972 1972-06-22 13.22 6,280
1973 1972-10-06 16.38 10,600
1974 1973-12-26 11.08 3,920
1975 1975-03-19 11.48 4,340
1976 1976-01-01 8.35 1,660
1977 1976-10-09 11.90 4,760
1978 1978-03-14 10.62 3,400
1979 1979-02-25 9.30 2,260
1980 1979-10-05 8.07 1,500
1981 1981-02-11 3.25 229
1982 1982-03-20 8.43 1,680
1983 1983-05-16 8.36 1,640
1984 1984-02-14 11.93 4,790
1985 1985-02-12 10.11 2,950
1986 1985-11-05 13.01 6,050
1987 1987-04-17 11.20 4,020
1988 1988-05-19 10.06 2,910
1989 1989-07-12 6.25 1,030
1990 1990-01-01 7.72 3001,2,9
1991 1990-10-23 9.53 2,470
1992 1992-04-22 9.31 2,310
1993 1993-03-04 11.52 4,360
1994 1993-11-28 10.60 3,390
1995 1995-07-22 6.08 984
1996 1996-09-06 17.62 12,400
1997 1997-03-04 9.47 2,430
1998 1998-01-08 9.78 2,660
1999 1999-09-30 5.91 917
2000 2000-09-26 4.25 472
2001 2001-08-12 9.30 2,300
2002 2002-04-22 5.36 600
2003 2003-09-19 16.25 10,300
2004 2004-09-29 9.95 2,810
2005 2004-12-09 4.44 456
2006 2006-06-28 11.91 3,710
2007 2006-11-16 6.52 839
2008 2008-05-12 4.45 421
2009 2009-05-07 5.85 699
2010 2010-01-25 10.48 2,450
2011 2011-04-17 11.28 3,120
2012 2011-12-08 8.03 1,190
2013 2013-07-12 10.06 2,320
2014 2014-05-16 12.43 4,360
2015 2015-09-30 6.04 804
2016 2016-06-05 10.34 2,520
2017 2017-05-05 5.76 738
2018 2018-06-03 11.55 3,500
2019 2018-12-21 7.94 1,310
2020 2020-04-30 7.25 1,110
2021 2021-05-04 9.452 1,840
?
  Peak Gage-Height Qualification Codes.
?
  Peak Streamflow Qualification Codes.